Time;durP1;ratioP1;P1;durP2;ratioP2;P2;SDS_P1;SDS_P2;PMS_P1;PMS_P2;Temp;Humidity;BMP_temperature;BMP_pressure;BME280_temperature;BME280_humidity;BME280_pressure;Samples;Min_cycle;Max_cycle;Signal;HPM_P1;HPM_P2
2021/10/23 00:01:03;;;;;;;;;;;;;;;;;;5054744;28;19963;-82
2021/10/23 00:03:29;;;;;;;;;;;;;;;;;;5037670;28;19921;-82
2021/10/23 00:05:54;;;;;;;;;;;;;;;;;;5021044;28;19999;-82
2021/10/23 00:08:20;;;;;;;;;;;;;;;;;;5038048;28;20015;-83
2021/10/23 00:10:45;;;;;;;;;;;;;;;;;;5037922;28;19920;-82
2021/10/23 00:13:10;;;;;;;;;;;;;;;;;;5054423;28;19917;-83
2021/10/23 00:15:36;;;;;;;;;;;;;;;;;;5038044;28;20365;-82
2021/10/23 00:18:01;;;;;;;;;;;;;;;;;;5021710;28;19966;-82
2021/10/23 00:20:26;;;;;;;;;;;;;;;;;;5052681;28;20296;-82
2021/10/23 00:22:52;;;;;;;;;;;;;;;;;;5037992;28;19958;-82
2021/10/23 00:25:19;;;;;;;;;;;;;;;;;;5020896;28;20378;-82
2021/10/23 00:27:44;;;;;;;;;;;;;;;;;;5032709;28;19917;-82
2021/10/23 00:30:10;;;;;;;;;;;;;;;;;;5034756;28;19919;-81
2021/10/23 00:32:37;;;;;;;;;;;;;;;;;;5038140;28;19917;-82
2021/10/23 00:35:03;;;;;;;;;;;;;;;;;;5021063;28;20366;-82
2021/10/23 00:37:28;;;;;;;;;;;;;;;;;;5038038;28;19920;-82
2021/10/23 00:39:54;;;;;;;;;;;;;;;;;;5029360;28;19924;-82
2021/10/23 00:42:19;;;;;;;;;;;;;;;;;;5018174;28;19920;-82
2021/10/23 00:44:45;;;;;;;;;;;;;;;;;;5036811;28;19912;-81
2021/10/23 00:47:11;;;;;;;;;;;;;;;;;;5038015;28;19924;-82
2021/10/23 00:49:36;;;;;;;;;;;;;;;;;;5037110;28;20011;-82
2021/10/23 00:52:03;;;;;;;;;;;;;;;;;;5037121;28;20019;-82
2021/10/23 00:54:28;;;;;;;;;;;;;;;;;;5054311;28;19917;-81
2021/10/23 00:56:54;;;;;;;;;;;;;;;;;;5053919;28;20408;-81
2021/10/23 00:59:20;;;;;;;;;;;;;;;;;;5037592;28;19920;-82
2021/10/23 01:01:45;;;;;;;;;;;;;;;;;;5037575;28;19916;-81
2021/10/23 01:04:11;;;;;;;;;;;;;;;;;;5037532;28;20377;-81
2021/10/23 01:06:36;;;;;;;;;;;;;;;;;;5020287;28;19927;-82
2021/10/23 01:09:02;;;;;;;;;;;;;;;;;;5020943;28;19917;-82
2021/10/23 01:11:27;;;;;;;;;;;;;;;;;;5037435;28;19924;-82
2021/10/23 01:13:53;;;;;;;;;;;;;;;;;;5053949;28;19920;-82
2021/10/23 01:16:18;;;;;;;;;;;;;;;;;;5020848;28;19924;-82
2021/10/23 01:18:44;;;;;;;;;;;;;;;;;;5036027;28;19916;-82
2021/10/23 01:21:09;;;;;;;;;;;;;;;;;;5035161;28;20011;-81
2021/10/23 01:23:34;;;;;;;;;;;;;;;;;;5054124;28;20273;-81
2021/10/23 01:26:00;;;;;;;;;;;;;;;;;;5037063;28;19979;-83
2021/10/23 01:28:25;;;;;;;;;;;;;;;;;;5020940;28;19913;-82
2021/10/23 01:30:53;;;;;;;;;;;;;;;;;;5021909;28;19924;-82
2021/10/23 01:33:19;;;;;;;;;;;;;;;;;;5037162;28;20106;-82
2021/10/23 01:35:44;;;;;;;;;;;;;;;;;;5026415;28;19916;-82
2021/10/23 01:38:09;;;;;;;;;;;;;;;;;;5033987;28;19920;-82
2021/10/23 01:40:34;;;;;;;;;;;;;;;;;;5025210;28;19924;-82
2021/10/23 01:43:00;;;;;;;;;;;;;;;;;;5036798;28;20385;-82
2021/10/23 01:45:25;;;;;;;;;;;;;;;;;;5037183;28;19959;-81
2021/10/23 01:47:51;;;;;;;;;;;;;;;;;;5053041;28;19916;-82
2021/10/23 01:50:17;;;;;;;;;;;;;;;;;;5019646;28;19967;-82
2021/10/23 01:52:42;;;;;;;;;;;;;;;;;;5023230;28;20003;-82
2021/10/23 01:55:09;;;;;;;;;;;;;;;;;;5040965;28;20447;-82
2021/10/23 01:57:34;;;;;;;;;;;;;;;;;;5024208;28;19913;-82
2021/10/23 01:59:59;;;;;;;;;;;;;;;;;;5024345;28;20324;-81
2021/10/23 02:02:25;;;;;;;;;;;;;;;;;;5023822;28;20011;-82
2021/10/23 02:04:50;;;;;;;;;;;;;;;;;;5040653;28;19912;-82
2021/10/23 02:07:15;;;;;;;;;;;;;;;;;;5056855;28;20323;-81
2021/10/23 02:09:41;;;;;;;;;;;;;;;;;;5056775;28;19917;-82
2021/10/23 02:12:06;;;;;;;;;;;;;;;;;;5023652;28;19921;-82
2021/10/23 02:14:31;;;;;;;;;;;;;;;;;;5039325;28;19917;-82
2021/10/23 02:16:57;;;;;;;;;;;;;;;;;;5040384;28;20371;-82
2021/10/23 02:19:22;;;;;;;;;;;;;;;;;;5023314;28;19916;-82
2021/10/23 02:21:48;;;;;;;;;;;;;;;;;;5039929;28;20460;-82
2021/10/23 02:24:13;;;;;;;;;;;;;;;;;;5057022;28;19960;-82
2021/10/23 02:26:38;;;;;;;;;;;;;;;;;;5056335;28;19981;-82
2021/10/23 02:29:04;;;;;;;;;;;;;;;;;;5023775;28;19913;-82
2021/10/23 02:31:29;;;;;;;;;;;;;;;;;;5039959;28;20379;-81
2021/10/23 02:33:56;;;;;;;;;;;;;;;;;;5040346;28;20034;-82
2021/10/23 02:36:21;;;;;;;;;;;;;;;;;;5056176;28;20378;-81
2021/10/23 02:38:48;;;;;;;;;;;;;;;;;;5040001;28;19970;-82
2021/10/23 02:41:13;;;;;;;;;;;;;;;;;;5040020;28;19925;-82
2021/10/23 02:43:39;;;;;;;;;;;;;;;;;;5056572;28;19924;-81
2021/10/23 02:46:04;;;;;;;;;;;;;;;;;;5055925;28;19917;-81
2021/10/23 02:48:30;;;;;;;;;;;;;;;;;;5039583;28;19962;-81
2021/10/23 02:50:55;;;;;;;;;;;;;;;;;;5023378;28;20293;-81
2021/10/23 02:53:20;;;;;;;;;;;;;;;;;;5038853;28;19912;-81
2021/10/23 02:55:46;;;;;;;;;;;;;;;;;;5039532;28;19963;-81
2021/10/23 02:58:11;;;;;;;;;;;;;;;;;;5023239;28;20278;-82
2021/10/23 03:00:37;;;;;;;;;;;;;;;;;;5039530;28;19959;-82
2021/10/23 03:03:02;;;;;;;;;;;;;;;;;;5022523;28;19924;-81
2021/10/23 03:05:28;;;;;;;;;;;;;;;;;;5039606;28;20353;-81
2021/10/23 03:07:53;;;;;;;;;;;;;;;;;;5038554;28;19923;-82
2021/10/23 03:10:18;;;;;;;;;;;;;;;;;;5039276;28;19924;-81
2021/10/23 03:12:44;;;;;;;;;;;;;;;;;;5056101;28;19921;-81
2021/10/23 03:15:09;;;;;;;;;;;;;;;;;;5022722;28;19921;-81
2021/10/23 03:17:35;;;;;;;;;;;;;;;;;;5021972;28;19916;-81
2021/10/23 03:20:01;;;;;;;;;;;;;;;;;;5022571;28;20274;-82
2021/10/23 03:22:26;;;;;;;;;;;;;;;;;;5055955;28;20420;-81
2021/10/23 03:24:52;;;;;;;;;;;;;;;;;;5022571;28;19999;-81
2021/10/23 03:27:22;;;;;;;;;;;;;;;;;;5021886;28;19928;-81
2021/10/23 03:29:47;;;;;;;;;;;;;;;;;;5056451;28;19966;-81
2021/10/23 03:32:12;;;;;;;;;;;;;;;;;;5038451;28;20699;-81
2021/10/23 03:34:37;;;;;;;;;;;;;;;;;;5039440;28;20339;-81
2021/10/23 03:37:03;;;;;;;;;;;;;;;;;;5022278;28;19917;-81
2021/10/23 03:39:28;;;;;;;;;;;;;;;;;;5038796;28;19924;-81
2021/10/23 03:41:54;;;;;;;;;;;;;;;;;;5038602;28;19917;-81
2021/10/23 03:44:19;;;;;;;;;;;;;;;;;;5038178;28;19921;-81
2021/10/23 03:46:44;;;;;;;;;;;;;;;;;;5053420;28;19999;-81
2021/10/23 03:49:10;;;;;;;;;;;;;;;;;;5033231;28;20367;-81
2021/10/23 03:51:35;;;;;;;;;;;;;;;;;;5025232;28;19942;-81
2021/10/23 03:54:00;;;;;;;;;;;;;;;;;;5038572;28;19912;-81
2021/10/23 03:56:26;;;;;;;;;;;;;;;;;;5038345;28;19916;-81
2021/10/23 03:58:51;;;;;;;;;;;;;;;;;;5038105;28;19923;-81
2021/10/23 04:01:16;;;;;;;;;;;;;;;;;;5038020;28;19913;-82
2021/10/23 04:03:42;;;;;;;;;;;;;;;;;;5033966;28;20329;-81
2021/10/23 04:06:07;;;;;;;;;;;;;;;;;;5018778;28;19919;-81
2021/10/23 04:08:32;;;;;;;;;;;;;;;;;;5048016;28;19983;-81
2021/10/23 04:10:57;;;;;;;;;;;;;;;;;;5021428;28;19921;-81
2021/10/23 04:13:23;;;;;;;;;;;;;;;;;;5037886;28;20282;-81
2021/10/23 04:15:49;;;;;;;;;;;;;;;;;;5053684;28;19922;-81
2021/10/23 04:18:14;;;;;;;;;;;;;;;;;;5021743;28;19916;-81
2021/10/23 04:20:40;;;;;;;;;;;;;;;;;;5037547;28;19913;-81
2021/10/23 04:23:05;;;;;;;;;;;;;;;;;;5037720;28;19924;-81
2021/10/23 04:25:30;;;;;;;;;;;;;;;;;;5054951;28;19957;-80
2021/10/23 04:27:56;;;;;;;;;;;;;;;;;;5037400;28;20293;-81
2021/10/23 04:30:21;;;;;;;;;;;;;;;;;;5037503;28;19917;-81
2021/10/23 04:32:46;;;;;;;;;;;;;;;;;;5021597;28;19916;-81
2021/10/23 04:35:12;;;;;;;;;;;;;;;;;;5037829;28;19912;-81
2021/10/23 04:37:39;;;;;;;;;;;;;;;;;;5021111;28;20344;-81
2021/10/23 04:40:04;;;;;;;;;;;;;;;;;;5037610;28;20016;-81
2021/10/23 04:42:30;;;;;;;;;;;;;;;;;;5020798;28;20015;-81
2021/10/23 04:44:56;;;;;;;;;;;;;;;;;;5054224;28;20335;-81
2021/10/23 04:47:21;;;;;;;;;;;;;;;;;;5054074;28;19917;-81
2021/10/23 04:49:46;;;;;;;;;;;;;;;;;;5037604;28;19985;-81
2021/10/23 04:52:12;;;;;;;;;;;;;;;;;;5037686;28;19912;-81
2021/10/23 04:54:37;;;;;;;;;;;;;;;;;;5037950;28;19916;-81
2021/10/23 04:57:02;;;;;;;;;;;;;;;;;;5031066;28;19970;-80
2021/10/23 04:59:28;;;;;;;;;;;;;;;;;;5037307;28;19926;-81
2021/10/23 05:01:53;;;;;;;;;;;;;;;;;;5020864;28;19916;-79
2021/10/23 05:04:18;;;;;;;;;;;;;;;;;;5054168;28;19927;-82
2021/10/23 05:06:44;;;;;;;;;;;;;;;;;;5020389;28;19916;-83
2021/10/23 05:09:09;;;;;;;;;;;;;;;;;;5018636;28;19924;-83
2021/10/23 05:11:34;;;;;;;;;;;;;;;;;;5018399;28;19924;-81
2021/10/23 05:14:00;;;;;;;;;;;;;;;;;;5020162;28;20286;-80
2021/10/23 05:16:25;;;;;;;;;;;;;;;;;;5053675;28;19916;-80
2021/10/23 05:18:51;;;;;;;;;;;;;;;;;;5053854;28;19919;-81
2021/10/23 05:21:17;;;;;;;;;;;;;;;;;;5037155;28;19920;-81
2021/10/23 05:23:43;;;;;;;;;;;;;;;;;;5037049;28;19923;-82
2021/10/23 05:26:08;;;;;;;;;;;;;;;;;;5038953;28;20011;-82
2021/10/23 05:28:34;;;;;;;;;;;;;;;;;;5040728;28;19942;-81
2021/10/23 05:30:59;;;;;;;;;;;;;;;;;;5040987;28;20381;-80
2021/10/23 05:33:24;;;;;;;;;;;;;;;;;;5041138;28;20003;-80
2021/10/23 05:35:50;;;;;;;;;;;;;;;;;;5041151;28;20332;-81
2021/10/23 05:38:15;;;;;;;;;;;;;;;;;;5037223;28;20264;-81
2021/10/23 05:40:40;;;;;;;;;;;;;;;;;;5004017;28;20007;-81
2021/10/23 05:43:06;;;;;;;;;;;;;;;;;;5028909;28;19917;-81
2021/10/23 05:45:31;;;;;;;;;;;;;;;;;;5056018;28;20358;-80
2021/10/23 05:47:56;;;;;;;;;;;;;;;;;;5023342;28;19917;-80
2021/10/23 05:50:22;;;;;;;;;;;;;;;;;;5056211;28;19920;-79
2021/10/23 05:52:47;;;;;;;;;;;;;;;;;;5038952;28;19916;-80
2021/10/23 05:55:12;;;;;;;;;;;;;;;;;;5040737;28;19961;-80
2021/10/23 05:57:38;;;;;;;;;;;;;;;;;;5038724;28;19920;-81
2021/10/23 06:00:09;;;;;;;;;;;;;;;;;;5039158;28;19917;-81
2021/10/23 06:02:35;;;;;;;;;;;;;;;;;;5039919;28;19927;-80
2021/10/23 06:05:00;;;;;;;;;;;;;;;;;;5039692;28;19912;-81
2021/10/23 06:07:29;;;;;;;;;;;;;;;;;;5023391;28;20321;-81
2021/10/23 06:09:55;;;;;;;;;;;;;;;;;;5039838;28;19923;-81
2021/10/23 06:12:21;;;;;;;;;;;;;;;;;;5026759;28;19943;-81
2021/10/23 06:14:46;;;;;;;;;;;;;;;;;;5037487;28;20382;-80
2021/10/23 06:17:12;;;;;;;;;;;;;;;;;;5039525;28;19913;-81
2021/10/23 06:19:37;;;;;;;;;;;;;;;;;;5057035;28;19938;-80
2021/10/23 06:22:03;;;;;;;;;;;;;;;;;;5056756;28;20349;-80
2021/10/23 06:24:28;;;;;;;;;;;;;;;;;;5057358;28;19916;-81
2021/10/23 06:26:54;;;;;;;;;;;;;;;;;;5056092;28;20375;-80
2021/10/23 06:29:19;;;;;;;;;;;;;;;;;;5039811;28;19946;-81
2021/10/23 06:31:44;;;;;;;;;;;;;;;;;;5039495;28;19917;-80
2021/10/23 06:34:10;;;;;;;;;;;;;;;;;;5023470;28;19973;-80
2021/10/23 06:36:35;;;;;;;;;;;;;;;;;;5056510;28;20409;-81
2021/10/23 06:39:00;;;;;;;;;;;;;;;;;;5039218;28;19916;-80
2021/10/23 06:41:26;;;;;;;;;;;;;;;;;;5039546;28;20011;-81
2021/10/23 06:43:51;;;;;;;;;;;;;;;;;;5056077;28;20274;-81
2021/10/23 06:46:16;;;;;;;;;;;;;;;;;;5040033;28;19913;-81
2021/10/23 06:48:42;;;;;;;;;;;;;;;;;;5039441;28;19970;-84
2021/10/23 06:51:07;;;;;;;;;;;;;;;;;;5039718;28;20487;-81
2021/10/23 06:53:32;;;;;;;;;;;;;;;;;;5039686;28;19916;-83
2021/10/23 06:55:58;;;;;;;;;;;;;;;;;;5039551;28;20007;-83
2021/10/23 06:58:23;;;;;;;;;;;;;;;;;;5056276;28;19920;-82
2021/10/23 07:00:49;;;;;;;;;;;;;;;;;;5039454;28;19936;-84
2021/10/23 07:03:17;;;;;;;;;;;;;;;;;;5056214;28;19944;-84
2021/10/23 07:05:44;;;;;;;;;;;;;;;;;;5023077;28;20332;-84
2021/10/23 07:08:09;;;;;;;;;;;;;;;;;;5039696;28;20366;-83
2021/10/23 07:10:35;;;;;;;;;;;;;;;;;;5039229;28;19927;-83
2021/10/23 07:13:02;;;;;;;;;;;;;;;;;;5039890;28;20357;-81
2021/10/23 07:15:28;;;;;;;;;;;;;;;;;;5037598;28;19916;-83
2021/10/23 07:17:54;;;;;;;;;;;;;;;;;;5036029;28;19923;-81
2021/10/23 07:20:19;;;;;;;;;;;;;;;;;;5021951;28;19943;-81
2021/10/23 07:22:44;;;;;;;;;;;;;;;;;;5035039;28;20366;-81
2021/10/23 07:25:10;;;;;;;;;;;;;;;;;;5039097;28;19923;-81
2021/10/23 07:27:35;;;;;;;;;;;;;;;;;;5036391;28;20051;-81
2021/10/23 07:30:02;;;;;;;;;;;;;;;;;;5021689;28;19973;-81
2021/10/23 07:32:28;;;;;;;;;;;;;;;;;;5022918;28;19917;-81
2021/10/23 07:34:53;;;;;;;;;;;;;;;;;;5019438;28;20000;-81
2021/10/23 07:37:19;;;;;;;;;;;;;;;;;;5019420;28;19920;-81
2021/10/23 07:39:44;;;;;;;;;;;;;;;;;;5018499;28;19924;-81
2021/10/23 07:42:09;;;;;;;;;;;;;;;;;;5035677;28;19921;-81
2021/10/23 07:44:35;;;;;;;;;;;;;;;;;;5046790;28;19923;-81
2021/10/23 07:47:00;;;;;;;;;;;;;;;;;;5038337;28;19966;-81
2021/10/23 07:49:25;;;;;;;;;;;;;;;;;;5017842;28;19919;-82
2021/10/23 07:51:50;;;;;;;;;;;;;;;;;;5037888;28;19912;-81
2021/10/23 07:54:16;;;;;;;;;;;;;;;;;;5038415;28;19920;-81
2021/10/23 07:56:42;;;;;;;;;;;;;;;;;;5038295;28;19919;-81
2021/10/23 07:59:07;;;;;;;;;;;;;;;;;;5021227;28;19920;-81
2021/10/23 08:01:32;;;;;;;;;;;;;;;;;;5021951;28;19912;-81
2021/10/23 08:03:58;;;;;;;;;;;;;;;;;;5038580;28;20413;-81
2021/10/23 08:06:23;;;;;;;;;;;;;;;;;;5029121;28;19931;-81
2021/10/23 08:08:48;;;;;;;;;;;;;;;;;;5001871;28;19920;-81
2021/10/23 08:11:14;;;;;;;;;;;;;;;;;;5018319;28;20286;-81
2021/10/23 08:13:39;;;;;;;;;;;;;;;;;;5002341;28;19917;-81
2021/10/23 08:16:05;;;;;;;;;;;;;;;;;;5033324;28;19923;-82
2021/10/23 08:18:30;;;;;;;;;;;;;;;;;;5054989;28;20015;-81
2021/10/23 08:20:56;;;;;;;;;;;;;;;;;;5035107;28;20008;-81
2021/10/23 08:23:22;;;;;;;;;;;;;;;;;;5029449;28;19917;-82
2021/10/23 08:25:47;;;;;;;;;;;;;;;;;;5020182;28;19955;-82
2021/10/23 08:28:12;;;;;;;;;;;;;;;;;;5035883;28;20379;-81
2021/10/23 08:30:39;;;;;;;;;;;;;;;;;;5034392;28;20010;-82
2021/10/23 08:33:04;;;;;;;;;;;;;;;;;;5034768;28;19963;-82
2021/10/23 08:35:30;;;;;;;;;;;;;;;;;;5001871;28;19917;-82
2021/10/23 08:37:56;;;;;;;;;;;;;;;;;;5022073;28;19916;-81
2021/10/23 08:40:21;;;;;;;;;;;;;;;;;;5053356;28;20277;-82
2021/10/23 08:42:47;;;;;;;;;;;;;;;;;;5020917;28;19920;-81
2021/10/23 08:45:13;;;;;;;;;;;;;;;;;;5054603;28;19951;-82
2021/10/23 08:47:38;;;;;;;;;;;;;;;;;;5021247;28;20005;-82
2021/10/23 08:50:07;;;;;;;;;;;;;;;;;;5037490;28;19966;-82
2021/10/23 08:52:32;;;;;;;;;;;;;;;;;;5054113;28;19958;-81
2021/10/23 08:54:57;;;;;;;;;;;;;;;;;;5020004;28;20378;-81
2021/10/23 08:57:25;;;;;;;;;;;;;;;;;;5066850;28;19912;-81
2021/10/23 08:59:51;;;;;;;;;;;;;;;;;;5037389;28;19920;-82
2021/10/23 09:02:18;;;;;;;;;;;;;;;;;;5021136;28;19919;-82
2021/10/23 09:04:43;;;;;;;;;;;;;;;;;;5020702;28;19916;-81
2021/10/23 09:07:12;;;;;;;;;;;;;;;;;;5037182;28;20459;-82
2021/10/23 09:09:56;;;;;;;;;;;;;;;;;;5033707;28;19951;-82
2021/10/23 09:12:28;;;;;;;;;;;;;;;;;;5074486;28;19952;-87
2021/10/23 09:15:01;;;;;;;;;;;;;;;;;;5059124;28;19916;-93
2021/10/23 09:17:29;;;;;;;;;;;;;;;;;;5059228;28;20369;-95
2021/10/23 09:19:58;;;;;;;;;;;;;;;;;;5058361;28;20019;-94
2021/10/23 09:22:30;;;;;;;;;;;;;;;;;;5058829;28;19958;-91
2021/10/23 09:25:27;;;;;;;;;;;;;;;;;;5050574;28;19920;-87
2021/10/23 09:28:02;;;;;;;;;;;;;;;;;;4986146;28;19912;-90
2021/10/23 09:30:31;;;;;;;;;;;;;;;;;;5035392;28;20393;-88
2021/10/23 09:33:01;;;;;;;;;;;;;;;;;;5006229;28;19912;-90
2021/10/23 09:35:28;;;;;;;;;;;;;;;;;;5021696;28;19969;-89
2021/10/23 09:37:57;;;;;;;;;;;;;;;;;;5039323;28;19917;-90
2021/10/23 09:40:26;;;;;;;;;;;;;;;;;;5038087;28;19927;-90
2021/10/23 09:43:14;;;;;;;;;;;;;;;;;;5055275;28;19920;-90
2021/10/23 09:45:59;;;;;;;;;;;;;;;;;;5072154;28;19916;-90
2021/10/23 09:48:38;;;;;;;;;;;;;;;;;;5055207;28;19913;-90
2021/10/23 09:51:26;;;;;;;;;;;;;;;;;;5055314;28;19959;-90
2021/10/23 09:53:52;;;;;;;;;;;;;;;;;;5054988;28;19919;-90
2021/10/23 09:56:20;;;;;;;;;;;;;;;;;;5038472;28;19912;-91
2021/10/23 09:59:00;;;;;;;;;;;;;;;;;;5065046;28;19912;-90
2021/10/23 10:01:28;;;;;;;;;;;;;;;;;;5058578;28;20369;-90
2021/10/23 10:03:54;;;;;;;;;;;;;;;;;;5054985;28;19918;-90
2021/10/23 10:06:20;;;;;;;;;;;;;;;;;;5021722;28;19966;-89
2021/10/23 10:08:45;;;;;;;;;;;;;;;;;;5021729;28;19924;-90
2021/10/23 10:11:11;;;;;;;;;;;;;;;;;;5021970;28;19916;-90
2021/10/23 10:13:39;;;;;;;;;;;;;;;;;;5040799;28;19983;-89
2021/10/23 10:16:05;;;;;;;;;;;;;;;;;;5025474;28;20007;-90
2021/10/23 10:18:32;;;;;;;;;;;;;;;;;;5025136;28;19975;-90
2021/10/23 10:20:59;;;;;;;;;;;;;;;;;;5025456;28;19913;-89
2021/10/23 10:23:35;;;;;;;;;;;;;;;;;;5025400;28;20280;-89
2021/10/23 10:26:25;;;;;;;;;;;;;;;;;;5021777;28;19917;-89
2021/10/23 10:29:10;;;;;;;;;;;;;;;;;;5038008;28;20003;-89
2021/10/23 10:31:42;;;;;;;;;;;;;;;;;;5037615;28;19980;-85
2021/10/23 10:34:13;;;;;;;;;;;;;;;;;;5004676;28;19912;-86
2021/10/23 10:36:38;;;;;;;;;;;;;;;;;;5024097;28;19922;-86
2021/10/23 10:39:24;;;;;;;;;;;;;;;;;;5023822;28;19920;-86
2021/10/23 10:45:24;;;;;;;;;;;;;;;;;;5039607;28;19923;-86
2021/10/23 10:48:07;;;;;;;;;;;;;;;;;;5056659;28;19946;-87
2021/10/23 10:50:40;;;;;;;;;;;;;;;;;;5039918;28;19963;-86
2021/10/23 10:53:15;;;;;;;;;;;;;;;;;;5023782;28;19912;-86
2021/10/23 10:55:41;;;;;;;;;;;;;;;;;;5039995;28;19912;-86
2021/10/23 10:58:11;;;;;;;;;;;;;;;;;;5040564;28;19959;-87
2021/10/23 11:00:46;;;;;;;;;;;;;;;;;;5039877;28;19916;-86
2021/10/23 11:03:30;;;;;;;;;;;;;;;;;;5039551;28;19920;-86
2021/10/23 11:05:59;;;;;;;;;;;;;;;;;;5053697;28;19913;-88
2021/10/23 11:08:26;;;;;;;;;;;;;;;;;;5004408;28;19956;-86
2021/10/23 11:10:55;;;;;;;;;;;;;;;;;;5003587;28;19963;-85
2021/10/23 11:13:24;;;;;;;;;;;;;;;;;;5036344;28;19960;-86
2021/10/23 11:15:50;;;;;;;;;;;;;;;;;;5003617;28;19932;-85
2021/10/23 11:18:17;;;;;;;;;;;;;;;;;;5003878;28;19965;-88
2021/10/23 11:20:45;;;;;;;;;;;;;;;;;;5017174;28;20406;-85
2021/10/23 11:23:12;;;;;;;;;;;;;;;;;;5036597;28;19917;-85
2021/10/23 11:25:38;;;;;;;;;;;;;;;;;;5039564;28;19917;-86
2021/10/23 11:28:13;;;;;;;;;;;;;;;;;;5051375;28;19926;-86
2021/10/23 11:30:40;;;;;;;;;;;;;;;;;;5022264;28;19916;-86
2021/10/23 11:33:10;;;;;;;;;;;;;;;;;;5034863;28;19935;-87
2021/10/23 11:35:49;;;;;;;;;;;;;;;;;;5036765;28;19912;-86
2021/10/23 11:38:19;;;;;;;;;;;;;;;;;;5032266;28;19927;-87
2021/10/23 11:40:46;;;;;;;;;;;;;;;;;;5035947;28;20263;-86
2021/10/23 11:43:16;;;;;;;;;;;;;;;;;;5022811;28;19916;-86
2021/10/23 11:45:45;;;;;;;;;;;;;;;;;;5023894;28;19923;-87
2021/10/23 11:48:12;;;;;;;;;;;;;;;;;;5031835;28;20011;-85
2021/10/23 11:50:40;;;;;;;;;;;;;;;;;;5033230;28;19921;-87
2021/10/23 11:53:16;;;;;;;;;;;;;;;;;;5040057;28;19952;-88
2021/10/23 11:55:43;;;;;;;;;;;;;;;;;;5039655;28;19920;-88
2021/10/23 11:58:10;;;;;;;;;;;;;;;;;;5056090;28;19935;-89
2021/10/23 12:00:39;;;;;;;;;;;;;;;;;;5029417;28;19970;-89
2021/10/23 12:03:06;;;;;;;;;;;;;;;;;;5022709;28;19970;-88
2021/10/23 12:05:38;;;;;;;;;;;;;;;;;;5022843;28;20008;-88
2021/10/23 12:08:10;;;;;;;;;;;;;;;;;;5039922;28;19916;-88
2021/10/23 12:10:56;;;;;;;;;;;;;;;;;;5039342;28;20017;-89
2021/10/23 12:13:25;;;;;;;;;;;;;;;;;;5038784;28;19917;-89
2021/10/23 12:16:08;;;;;;;;;;;;;;;;;;5035954;28;19963;-90
2021/10/23 12:18:36;;;;;;;;;;;;;;;;;;5015295;28;19916;-89
2021/10/23 12:21:10;;;;;;;;;;;;;;;;;;5039686;28;19958;-89
2021/10/23 12:23:44;;;;;;;;;;;;;;;;;;5039389;28;19913;-89
2021/10/23 12:26:09;;;;;;;;;;;;;;;;;;5039357;28;19923;-89
2021/10/23 12:28:55;;;;;;;;;;;;;;;;;;5021602;28;20015;-89
2021/10/23 12:31:24;;;;;;;;;;;;;;;;;;5037427;28;19917;-89
2021/10/23 12:34:04;;;;;;;;;;;;;;;;;;5021473;28;19921;-89
2021/10/23 12:36:31;;;;;;;;;;;;;;;;;;5022354;28;19916;-89
2021/10/23 12:39:15;;;;;;;;;;;;;;;;;;5022871;28;19923;-90
2021/10/23 12:41:43;;;;;;;;;;;;;;;;;;5023154;28;20293;-92
2021/10/23 12:44:24;;;;;;;;;;;;;;;;;;5038575;28;19965;-90
2021/10/23 12:46:50;;;;;;;;;;;;;;;;;;5038309;28;19924;-90
2021/10/23 12:49:22;;;;;;;;;;;;;;;;;;5038924;28;19912;-88
2021/10/23 12:51:49;;;;;;;;;;;;;;;;;;5038585;28;19912;-88
2021/10/23 12:54:17;;;;;;;;;;;;;;;;;;5022970;28;20362;-91
2021/10/23 12:56:46;;;;;;;;;;;;;;;;;;5022349;28;19960;-88
2021/10/23 12:59:13;;;;;;;;;;;;;;;;;;5054426;28;19923;-89
2021/10/23 13:01:40;;;;;;;;;;;;;;;;;;5018052;28;19920;-85
2021/10/23 13:04:07;;;;;;;;;;;;;;;;;;5035350;28;19912;-89
2021/10/23 13:06:33;;;;;;;;;;;;;;;;;;5037370;28;19939;-88
2021/10/23 13:08:59;;;;;;;;;;;;;;;;;;5034152;28;19917;-89
2021/10/23 13:11:25;;;;;;;;;;;;;;;;;;5007874;28;19916;-82
2021/10/23 13:13:51;;;;;;;;;;;;;;;;;;5034841;28;19921;-81
2021/10/23 13:16:16;;;;;;;;;;;;;;;;;;5053402;28;19920;-81
2021/10/23 13:18:42;;;;;;;;;;;;;;;;;;5020211;28;19956;-82
2021/10/23 13:21:08;;;;;;;;;;;;;;;;;;5049611;28;19923;-82
2021/10/23 13:23:33;;;;;;;;;;;;;;;;;;5036557;28;19920;-83
2021/10/23 13:25:59;;;;;;;;;;;;;;;;;;5020776;28;19916;-82
2021/10/23 13:28:24;;;;;;;;;;;;;;;;;;5018929;28;19927;-82
2021/10/23 13:30:50;;;;;;;;;;;;;;;;;;5011133;28;19927;-82
2021/10/23 13:33:15;;;;;;;;;;;;;;;;;;5021049;28;19913;-82
2021/10/23 13:35:41;;;;;;;;;;;;;;;;;;5036584;28;19966;-81
2021/10/23 13:38:06;;;;;;;;;;;;;;;;;;5054058;28;20282;-82
2021/10/23 13:40:31;;;;;;;;;;;;;;;;;;5052577;28;20009;-81
2021/10/23 13:42:57;;;;;;;;;;;;;;;;;;5036823;28;19916;-82
2021/10/23 13:45:22;;;;;;;;;;;;;;;;;;5036601;28;19944;-82
2021/10/23 13:47:48;;;;;;;;;;;;;;;;;;5038675;28;19920;-82
2021/10/23 13:50:13;;;;;;;;;;;;;;;;;;5056639;28;20734;-82
2021/10/23 13:52:38;;;;;;;;;;;;;;;;;;5040562;28;19920;-82
2021/10/23 13:55:04;;;;;;;;;;;;;;;;;;5040999;28;19922;-81
2021/10/23 13:57:29;;;;;;;;;;;;;;;;;;5040392;28;20275;-82
2021/10/23 13:59:54;;;;;;;;;;;;;;;;;;5024166;28;19913;-82
2021/10/23 14:02:20;;;;;;;;;;;;;;;;;;5036352;28;19952;-83
2021/10/23 14:04:45;;;;;;;;;;;;;;;;;;5030796;28;20421;-82
2021/10/23 14:07:11;;;;;;;;;;;;;;;;;;5037844;28;20003;-82
2021/10/23 14:09:36;;;;;;;;;;;;;;;;;;5040848;28;19916;-83
2021/10/23 14:12:01;;;;;;;;;;;;;;;;;;5056699;28;19969;-81
2021/10/23 14:14:27;;;;;;;;;;;;;;;;;;5040075;28;19925;-82
2021/10/23 14:16:52;;;;;;;;;;;;;;;;;;5040505;28;20297;-82
2021/10/23 14:19:17;;;;;;;;;;;;;;;;;;5029651;28;19928;-82
2021/10/23 14:21:43;;;;;;;;;;;;;;;;;;5032116;28;19921;-82
2021/10/23 14:24:10;;;;;;;;;;;;;;;;;;5040561;28;20693;-88
2021/10/23 14:26:42;;;;;;;;;;;;;;;;;;5058096;28;19913;-89
2021/10/23 14:29:08;;;;;;;;;;;;;;;;;;5041583;28;20061;-89
2021/10/23 14:31:34;;;;;;;;;;;;;;;;;;5041047;28;19920;-88
2021/10/23 14:34:00;;;;;;;;;;;;;;;;;;5053620;28;20282;-90
2021/10/23 14:36:28;;;;;;;;;;;;;;;;;;5042513;28;20370;-89
2021/10/23 14:38:54;;;;;;;;;;;;;;;;;;5053472;28;19916;-89
2021/10/23 14:41:21;;;;;;;;;;;;;;;;;;5047146;28;19921;-88
2021/10/23 14:43:51;;;;;;;;;;;;;;;;;;5040836;28;19913;-87
2021/10/23 14:46:18;;;;;;;;;;;;;;;;;;5045737;28;19940;-88
2021/10/23 14:48:44;;;;;;;;;;;;;;;;;;5039837;28;19912;-87
2021/10/23 14:51:14;;;;;;;;;;;;;;;;;;5023743;28;19920;-87
2021/10/23 14:53:42;;;;;;;;;;;;;;;;;;5028643;28;19928;-86
2021/10/23 14:56:09;;;;;;;;;;;;;;;;;;5031861;28;20366;-87
2021/10/23 14:58:38;;;;;;;;;;;;;;;;;;5041279;28;19916;-85
2021/10/23 15:01:04;;;;;;;;;;;;;;;;;;5023816;28;19982;-85
2021/10/23 15:03:29;;;;;;;;;;;;;;;;;;5036547;28;20015;-84
2021/10/23 15:05:56;;;;;;;;;;;;;;;;;;5003526;28;19912;-85
2021/10/23 15:08:22;;;;;;;;;;;;;;;;;;5015377;28;19961;-86
2021/10/23 15:10:49;;;;;;;;;;;;;;;;;;5023216;28;20263;-86
2021/10/23 15:13:15;;;;;;;;;;;;;;;;;;5023089;28;20011;-86
2021/10/23 15:15:41;;;;;;;;;;;;;;;;;;5019929;28;20011;-87
2021/10/23 15:18:07;;;;;;;;;;;;;;;;;;5010815;28;19997;-86
2021/10/23 15:20:32;;;;;;;;;;;;;;;;;;5022729;28;19923;-86
2021/10/23 15:22:58;;;;;;;;;;;;;;;;;;5039479;28;19920;-87
2021/10/23 15:25:23;;;;;;;;;;;;;;;;;;5022687;28;19912;-87
2021/10/23 15:27:50;;;;;;;;;;;;;;;;;;5039885;28;19916;-87
2021/10/23 15:30:16;;;;;;;;;;;;;;;;;;5059633;28;19912;-87
2021/10/23 15:32:46;;;;;;;;;;;;;;;;;;5035302;28;20000;-87
2021/10/23 15:35:12;;;;;;;;;;;;;;;;;;5041677;28;20006;-87
2021/10/23 15:37:38;;;;;;;;;;;;;;;;;;5022934;28;19930;-87
2021/10/23 15:40:06;;;;;;;;;;;;;;;;;;5022543;28;19952;-87
2021/10/23 15:42:31;;;;;;;;;;;;;;;;;;5059488;28;19967;-85
2021/10/23 15:44:58;;;;;;;;;;;;;;;;;;5057641;28;19971;-85
2021/10/23 15:47:25;;;;;;;;;;;;;;;;;;5022570;28;20450;-85
2021/10/23 15:49:50;;;;;;;;;;;;;;;;;;5035514;28;20337;-86
2021/10/23 15:52:22;;;;;;;;;;;;;;;;;;5022374;28;19920;-86
2021/10/23 15:54:47;;;;;;;;;;;;;;;;;;5023130;28;19974;-86
2021/10/23 15:57:13;;;;;;;;;;;;;;;;;;5038711;28;19912;-85
2021/10/23 15:59:39;;;;;;;;;;;;;;;;;;5022023;28;19940;-87
2021/10/23 16:02:04;;;;;;;;;;;;;;;;;;5021988;28;20010;-86
2021/10/23 16:04:32;;;;;;;;;;;;;;;;;;5043350;28;20355;-87
2021/10/23 16:06:59;;;;;;;;;;;;;;;;;;5049166;28;20305;-85
2021/10/23 16:09:24;;;;;;;;;;;;;;;;;;5020965;28;19916;-87
2021/10/23 16:11:50;;;;;;;;;;;;;;;;;;5038444;28;19920;-86
2021/10/23 16:14:18;;;;;;;;;;;;;;;;;;5022426;28;19920;-86
2021/10/23 16:16:44;;;;;;;;;;;;;;;;;;5023448;28;19912;-85
2021/10/23 16:19:10;;;;;;;;;;;;;;;;;;5023114;28;20424;-86
2021/10/23 16:21:37;;;;;;;;;;;;;;;;;;5022372;28;19924;-85
2021/10/23 16:24:02;;;;;;;;;;;;;;;;;;5022401;28;19966;-86
2021/10/23 16:26:29;;;;;;;;;;;;;;;;;;5022831;28;19913;-85
2021/10/23 16:28:58;;;;;;;;;;;;;;;;;;5023320;28;19924;-85
2021/10/23 16:31:24;;;;;;;;;;;;;;;;;;5023250;28;19916;-86
2021/10/23 16:33:50;;;;;;;;;;;;;;;;;;5023320;28;19940;-85
2021/10/23 16:36:16;;;;;;;;;;;;;;;;;;5022245;28;19912;-86
2021/10/23 16:38:41;;;;;;;;;;;;;;;;;;5022460;28;19955;-86
2021/10/23 16:41:07;;;;;;;;;;;;;;;;;;5034685;28;19917;-86
2021/10/23 16:43:33;;;;;;;;;;;;;;;;;;5022647;28;20389;-87
2021/10/23 16:45:58;;;;;;;;;;;;;;;;;;5019690;28;20439;-88
2021/10/23 16:48:26;;;;;;;;;;;;;;;;;;5036289;28;19912;-86